world map with FRZ marked

FRZ - Airport

This information may not be accurate or current and is not valid for navigation or flight planning. No warranty of fitness for any purpose is made or implied.

flag of Hessenflag of Germany

Donate via PayPal

Additional information is available on the NEW Great Circle Mapper

Location
City:  Fritzlar, Hessen, Germany
Name:Fritzlar AB
ICAO / IATA:ETHF / FRZ

Details
Type:Airport (Flugplatz, Airfield)
Use:Military
Latitude:51°06'52"N (51.114583)
Longitude:9°17'09"E (9.285867)
Elevation:566 ft (173 m)
Runways:1
Longest:3413 × 98 ft (1040 × 30 m)

Time
Timezone:UTC+1 (DST+4)
Local Time:

Weather
METAR:ETHF  041320Z 20011KT 9999 FEW020 BKN200 04/M02 Q1026 BLU+BLU+
TAF:ETHF  (expired)

Related Locations
Nearby:
Farthest:CHT: 11860 mi / 19088 km
Waitangi [Tuuta], CIT, NZ

Find:

   beyond  
but within

Other Information
Maps:
Sources:

  

Airport Diagram

Airport diagram for FRZ

Airport diagram (OBSOLETE) from NGA

 


Great Circle Mapper   Great Circle Mapper
Great Circle Mapper FAQ   Great Circle Mapper FAQ
  Karl's Home Page
KLSē   KLSē Home
   GC on Facebook
Airlines of the World   Airlines of the World
Donate via PayPal


Copyright © 2004-2020, Karl L. Swartz. All rights reserved.
All trademarks mentioned herein belong to their respective owners.

Please see credits for attribution and copyright information.

Karl Swartz <karl@kls2.com>
  Powered by FreeBSD
Valid HTML 4.01!
Labeled with ICRA
hCard Microformat
Geo Microformat